sensor_id;sensor_type;location;lat;lon;timestamp;temperature;humidity
9939;DHT22;5008;50.656;7.188;2022-09-03T00:01:07;18.00;99.90
9939;DHT22;5008;50.656;7.188;2022-09-03T00:03:39;18.10;99.90
9939;DHT22;5008;50.656;7.188;2022-09-03T00:06:12;18.10;99.90
9939;DHT22;5008;50.656;7.188;2022-09-03T00:08:45;18.20;99.90
9939;DHT22;5008;50.656;7.188;2022-09-03T00:11:18;18.20;99.90
9939;DHT22;5008;50.656;7.188;2022-09-03T00:13:50;18.30;99.90
9939;DHT22;5008;50.656;7.188;2022-09-03T00:16:24;18.30;99.90
9939;DHT22;5008;50.656;7.188;2022-09-03T00:18:56;18.30;99.90
9939;DHT22;5008;50.656;7.188;2022-09-03T00:21:31;18.20;99.90
9939;DHT22;5008;50.656;7.188;2022-09-03T00:24:02;18.20;99.90
9939;DHT22;5008;50.656;7.188;2022-09-03T00:26:33;18.20;99.90
9939;DHT22;5008;50.656;7.188;2022-09-03T00:29:08;18.00;99.90
9939;DHT22;5008;50.656;7.188;2022-09-03T00:31:40;18.00;99.90
9939;DHT22;5008;50.656;7.188;2022-09-03T00:34:14;18.00;99.90
9939;DHT22;5008;50.656;7.188;2022-09-03T00:36:44;18.10;99.90
9939;DHT22;5008;50.656;7.188;2022-09-03T00:39:12;18.00;99.90
9939;DHT22;5008;50.656;7.188;2022-09-03T00:41:47;18.00;99.90
9939;DHT22;5008;50.656;7.188;2022-09-03T00:44:48;17.90;99.90
9939;DHT22;5008;50.656;7.188;2022-09-03T00:47:25;18.00;99.90
9939;DHT22;5008;50.656;7.188;2022-09-03T00:50:02;18.00;99.90
9939;DHT22;5008;50.656;7.188;2022-09-03T00:52:42;18.00;99.90
9939;DHT22;5008;50.656;7.188;2022-09-03T00:55:20;18.00;99.90
9939;DHT22;5008;50.656;7.188;2022-09-03T00:57:57;18.00;99.90
9939;DHT22;5008;50.656;7.188;2022-09-03T01:00:28;18.10;99.90
9939;DHT22;5008;50.656;7.188;2022-09-03T01:03:05;18.10;99.90
9939;DHT22;5008;50.656;7.188;2022-09-03T01:05:55;18.10;99.90
9939;DHT22;5008;50.656;7.188;2022-09-03T01:08:36;18.10;99.90
9939;DHT22;5008;50.656;7.188;2022-09-03T01:11:14;18.10;99.90
9939;DHT22;5008;50.656;7.188;2022-09-03T01:13:49;18.00;99.90
9939;DHT22;5008;50.656;7.188;2022-09-03T01:16:26;18.10;99.90
9939;DHT22;5008;50.656;7.188;2022-09-03T01:19:03;18.20;99.90
9939;DHT22;5008;50.656;7.188;2022-09-03T01:22:00;18.30;99.90
9939;DHT22;5008;50.656;7.188;2022-09-03T01:24:54;18.30;99.90
9939;DHT22;5008;50.656;7.188;2022-09-03T01:27:40;18.30;99.90
9939;DHT22;5008;50.656;7.188;2022-09-03T01:30:14;18.30;99.90
9939;DHT22;5008;50.656;7.188;2022-09-03T01:32:47;18.20;99.90
9939;DHT22;5008;50.656;7.188;2022-09-03T01:35:21;18.20;99.90
9939;DHT22;5008;50.656;7.188;2022-09-03T01:38:00;18.10;99.90
9939;DHT22;5008;50.656;7.188;2022-09-03T01:40:37;18.20;99.90
9939;DHT22;5008;50.656;7.188;2022-09-03T01:43:22;18.20;99.90
9939;DHT22;5008;50.656;7.188;2022-09-03T01:45:58;18.30;99.90
9939;DHT22;5008;50.656;7.188;2022-09-03T01:48:46;18.30;99.90
9939;DHT22;5008;50.656;7.188;2022-09-03T01:51:18;18.40;99.90
9939;DHT22;5008;50.656;7.188;2022-09-03T01:54:12;18.40;99.90
9939;DHT22;5008;50.656;7.188;2022-09-03T01:56:52;18.50;99.90
9939;DHT22;5008;50.656;7.188;2022-09-03T01:59:30;18.50;99.90
9939;DHT22;5008;50.656;7.188;2022-09-03T02:02:03;18.50;99.90
9939;DHT22;5008;50.656;7.188;2022-09-03T02:04:32;18.50;99.90
9939;DHT22;5008;50.656;7.188;2022-09-03T02:07:00;18.40;99.90
9939;DHT22;5008;50.656;7.188;2022-09-03T02:09:29;18.50;99.90
9939;DHT22;5008;50.656;7.188;2022-09-03T02:11:59;18.50;99.90
9939;DHT22;5008;50.656;7.188;2022-09-03T02:14:28;18.40;99.90
9939;DHT22;5008;50.656;7.188;2022-09-03T02:16:57;18.50;99.90
9939;DHT22;5008;50.656;7.188;2022-09-03T02:19:27;18.50;99.90
9939;DHT22;5008;50.656;7.188;2022-09-03T02:21:56;18.50;99.90
9939;DHT22;5008;50.656;7.188;2022-09-03T02:24:24;18.40;99.90
9939;DHT22;5008;50.656;7.188;2022-09-03T02:26:51;18.50;99.90
9939;DHT22;5008;50.656;7.188;2022-09-03T02:29:18;18.50;99.90
9939;DHT22;5008;50.656;7.188;2022-09-03T02:31:45;18.50;99.90
9939;DHT22;5008;50.656;7.188;2022-09-03T02:34:12;18.50;99.90
9939;DHT22;5008;50.656;7.188;2022-09-03T02:36:43;18.50;99.90
9939;DHT22;5008;50.656;7.188;2022-09-03T02:39:11;18.60;99.90
9939;DHT22;5008;50.656;7.188;2022-09-03T02:41:38;18.50;99.90
9939;DHT22;5008;50.656;7.188;2022-09-03T02:44:08;18.50;99.90
9939;DHT22;5008;50.656;7.188;2022-09-03T02:46:39;18.50;99.90
9939;DHT22;5008;50.656;7.188;2022-09-03T02:49:07;18.50;99.90
9939;DHT22;5008;50.656;7.188;2022-09-03T02:51:35;18.40;99.90
9939;DHT22;5008;50.656;7.188;2022-09-03T02:54:03;18.40;99.90
9939;DHT22;5008;50.656;7.188;2022-09-03T02:56:30;18.50;99.90
9939;DHT22;5008;50.656;7.188;2022-09-03T02:58:57;18.60;99.90
9939;DHT22;5008;50.656;7.188;2022-09-03T03:01:24;18.60;99.90
9939;DHT22;5008;50.656;7.188;2022-09-03T03:03:52;18.50;99.90
9939;DHT22;5008;50.656;7.188;2022-09-03T03:06:19;18.50;99.90
9939;DHT22;5008;50.656;7.188;2022-09-03T03:08:46;18.60;99.90
9939;DHT22;5008;50.656;7.188;2022-09-03T03:11:15;18.50;99.90
9939;DHT22;5008;50.656;7.188;2022-09-03T03:13:43;18.50;99.90
9939;DHT22;5008;50.656;7.188;2022-09-03T03:16:11;18.40;99.90
9939;DHT22;5008;50.656;7.188;2022-09-03T03:18:38;18.30;99.90
9939;DHT22;5008;50.656;7.188;2022-09-03T03:21:06;18.30;99.90
9939;DHT22;5008;50.656;7.188;2022-09-03T03:23:34;18.30;99.90
9939;DHT22;5008;50.656;7.188;2022-09-03T03:26:02;18.20;99.90
9939;DHT22;5008;50.656;7.188;2022-09-03T03:28:30;18.10;99.90
9939;DHT22;5008;50.656;7.188;2022-09-03T03:30:58;18.00;99.90
9939;DHT22;5008;50.656;7.188;2022-09-03T03:33:30;17.80;99.90
9939;DHT22;5008;50.656;7.188;2022-09-03T03:35:57;17.70;99.90
9939;DHT22;5008;50.656;7.188;2022-09-03T03:38:24;17.80;99.90
9939;DHT22;5008;50.656;7.188;2022-09-03T03:40:50;17.90;99.90
9939;DHT22;5008;50.656;7.188;2022-09-03T03:43:17;17.90;99.90
9939;DHT22;5008;50.656;7.188;2022-09-03T03:45:56;17.80;99.90
9939;DHT22;5008;50.656;7.188;2022-09-03T03:48:23;17.80;99.90
9939;DHT22;5008;50.656;7.188;2022-09-03T03:50:50;17.70;99.90
9939;DHT22;5008;50.656;7.188;2022-09-03T03:53:17;17.70;99.90
9939;DHT22;5008;50.656;7.188;2022-09-03T03:55:53;17.80;99.90
9939;DHT22;5008;50.656;7.188;2022-09-03T03:58:20;18.00;99.90
9939;DHT22;5008;50.656;7.188;2022-09-03T04:00:49;17.90;99.90
9939;DHT22;5008;50.656;7.188;2022-09-03T04:03:15;17.90;99.90
9939;DHT22;5008;50.656;7.188;2022-09-03T04:05:42;17.80;99.90
9939;DHT22;5008;50.656;7.188;2022-09-03T04:08:09;17.80;99.90
9939;DHT22;5008;50.656;7.188;2022-09-03T04:10:37;17.80;99.90
9939;DHT22;5008;50.656;7.188;2022-09-03T04:13:04;17.70;99.90
9939;DHT22;5008;50.656;7.188;2022-09-03T04:15:30;17.70;99.90
9939;DHT22;5008;50.656;7.188;2022-09-03T04:17:58;17.60;99.90
9939;DHT22;5008;50.656;7.188;2022-09-03T04:20:25;17.60;99.90
9939;DHT22;5008;50.656;7.188;2022-09-03T04:22:52;17.60;99.90
9939;DHT22;5008;50.656;7.188;2022-09-03T04:25:19;17.60;99.90
9939;DHT22;5008;50.656;7.188;2022-09-03T04:27:46;17.50;99.90
9939;DHT22;5008;50.656;7.188;2022-09-03T04:30:12;17.40;99.90
9939;DHT22;5008;50.656;7.188;2022-09-03T04:32:39;17.30;99.90
9939;DHT22;5008;50.656;7.188;2022-09-03T04:35:24;17.20;99.90
9939;DHT22;5008;50.656;7.188;2022-09-03T04:37:53;17.20;99.90
9939;DHT22;5008;50.656;7.188;2022-09-03T04:40:20;17.10;99.90
9939;DHT22;5008;50.656;7.188;2022-09-03T04:42:47;17.10;99.90
9939;DHT22;5008;50.656;7.188;2022-09-03T04:45:14;17.10;99.90
9939;DHT22;5008;50.656;7.188;2022-09-03T04:47:43;17.10;99.90
9939;DHT22;5008;50.656;7.188;2022-09-03T04:50:11;17.00;99.90
9939;DHT22;5008;50.656;7.188;2022-09-03T04:52:39;17.10;99.90
9939;DHT22;5008;50.656;7.188;2022-09-03T04:55:07;17.20;99.90
9939;DHT22;5008;50.656;7.188;2022-09-03T04:57:35;17.40;99.90
9939;DHT22;5008;50.656;7.188;2022-09-03T05:00:03;17.50;99.90
9939;DHT22;5008;50.656;7.188;2022-09-03T05:02:30;17.50;99.90
9939;DHT22;5008;50.656;7.188;2022-09-03T05:04:57;17.70;99.90
9939;DHT22;5008;50.656;7.188;2022-09-03T05:07:24;17.80;99.90
9939;DHT22;5008;50.656;7.188;2022-09-03T05:09:54;17.90;99.90
9939;DHT22;5008;50.656;7.188;2022-09-03T05:12:23;18.10;99.90
9939;DHT22;5008;50.656;7.188;2022-09-03T05:14:49;18.30;99.90
9939;DHT22;5008;50.656;7.188;2022-09-03T05:17:16;18.40;99.90
9939;DHT22;5008;50.656;7.188;2022-09-03T05:19:43;18.50;99.90
9939;DHT22;5008;50.656;7.188;2022-09-03T05:22:09;18.60;99.90
9939;DHT22;5008;50.656;7.188;2022-09-03T05:24:36;18.50;99.90
9939;DHT22;5008;50.656;7.188;2022-09-03T05:27:04;18.50;99.90
9939;DHT22;5008;50.656;7.188;2022-09-03T05:29:32;18.60;99.90
9939;DHT22;5008;50.656;7.188;2022-09-03T05:31:58;18.70;99.90
9939;DHT22;5008;50.656;7.188;2022-09-03T05:34:25;18.70;99.90
9939;DHT22;5008;50.656;7.188;2022-09-03T05:36:52;18.70;99.90
9939;DHT22;5008;50.656;7.188;2022-09-03T05:39:21;18.70;99.90
9939;DHT22;5008;50.656;7.188;2022-09-03T05:41:47;18.70;99.90
9939;DHT22;5008;50.656;7.188;2022-09-03T05:44:16;18.80;99.90
9939;DHT22;5008;50.656;7.188;2022-09-03T05:46:43;18.90;99.90
9939;DHT22;5008;50.656;7.188;2022-09-03T05:49:09;18.90;99.90
9939;DHT22;5008;50.656;7.188;2022-09-03T05:51:37;18.90;99.90
9939;DHT22;5008;50.656;7.188;2022-09-03T05:54:04;18.90;99.90
9939;DHT22;5008;50.656;7.188;2022-09-03T05:56:33;18.90;99.90
9939;DHT22;5008;50.656;7.188;2022-09-03T05:59:02;18.80;99.90
9939;DHT22;5008;50.656;7.188;2022-09-03T06:01:34;18.80;99.90
9939;DHT22;5008;50.656;7.188;2022-09-03T06:04:03;18.70;99.90
9939;DHT22;5008;50.656;7.188;2022-09-03T06:06:32;18.60;99.90
9939;DHT22;5008;50.656;7.188;2022-09-03T06:09:01;18.50;99.90
9939;DHT22;5008;50.656;7.188;2022-09-03T06:11:29;18.50;99.90
9939;DHT22;5008;50.656;7.188;2022-09-03T06:13:57;18.40;99.90
9939;DHT22;5008;50.656;7.188;2022-09-03T06:16:26;18.40;99.90
9939;DHT22;5008;50.656;7.188;2022-09-03T06:18:54;18.50;99.90
9939;DHT22;5008;50.656;7.188;2022-09-03T06:21:21;18.50;99.90
9939;DHT22;5008;50.656;7.188;2022-09-03T06:23:48;18.50;99.90
9939;DHT22;5008;50.656;7.188;2022-09-03T06:26:16;18.70;99.90
9939;DHT22;5008;50.656;7.188;2022-09-03T06:28:44;18.70;99.90
9939;DHT22;5008;50.656;7.188;2022-09-03T06:31:13;18.80;99.90
9939;DHT22;5008;50.656;7.188;2022-09-03T06:33:40;18.90;99.90
9939;DHT22;5008;50.656;7.188;2022-09-03T06:36:10;19.00;99.90
9939;DHT22;5008;50.656;7.188;2022-09-03T06:38:38;19.00;99.90
9939;DHT22;5008;50.656;7.188;2022-09-03T06:41:07;19.00;99.90
9939;DHT22;5008;50.656;7.188;2022-09-03T06:43:36;19.00;99.90
9939;DHT22;5008;50.656;7.188;2022-09-03T06:46:05;19.00;99.90
9939;DHT22;5008;50.656;7.188;2022-09-03T06:48:33;19.00;99.90
9939;DHT22;5008;50.656;7.188;2022-09-03T06:51:02;19.00;99.90
9939;DHT22;5008;50.656;7.188;2022-09-03T06:53:31;19.00;99.90
9939;DHT22;5008;50.656;7.188;2022-09-03T06:56:00;19.00;99.90
9939;DHT22;5008;50.656;7.188;2022-09-03T06:58:29;19.00;99.90
9939;DHT22;5008;50.656;7.188;2022-09-03T07:01:00;19.00;99.90
9939;DHT22;5008;50.656;7.188;2022-09-03T07:03:27;19.00;99.90
9939;DHT22;5008;50.656;7.188;2022-09-03T07:05:59;18.80;99.90
9939;DHT22;5008;50.656;7.188;2022-09-03T07:08:26;18.50;99.90
9939;DHT22;5008;50.656;7.188;2022-09-03T07:10:55;18.30;99.90
9939;DHT22;5008;50.656;7.188;2022-09-03T07:13:22;18.10;99.90
9939;DHT22;5008;50.656;7.188;2022-09-03T07:15:57;18.00;99.90
9939;DHT22;5008;50.656;7.188;2022-09-03T07:18:24;17.70;99.90
9939;DHT22;5008;50.656;7.188;2022-09-03T07:20:51;17.60;99.90
9939;DHT22;5008;50.656;7.188;2022-09-03T07:23:18;17.50;99.90
9939;DHT22;5008;50.656;7.188;2022-09-03T07:25:52;17.40;99.90
9939;DHT22;5008;50.656;7.188;2022-09-03T07:28:21;17.30;99.90
9939;DHT22;5008;50.656;7.188;2022-09-03T07:30:48;17.30;99.90
9939;DHT22;5008;50.656;7.188;2022-09-03T07:33:15;17.30;99.90
9939;DHT22;5008;50.656;7.188;2022-09-03T07:35:43;17.20;99.90
9939;DHT22;5008;50.656;7.188;2022-09-03T07:38:10;17.10;99.90
9939;DHT22;5008;50.656;7.188;2022-09-03T07:40:37;17.20;99.90
9939;DHT22;5008;50.656;7.188;2022-09-03T07:43:04;17.20;99.90
9939;DHT22;5008;50.656;7.188;2022-09-03T07:45:32;17.10;99.90
9939;DHT22;5008;50.656;7.188;2022-09-03T07:47:59;17.20;99.90
9939;DHT22;5008;50.656;7.188;2022-09-03T07:50:26;17.20;99.90
9939;DHT22;5008;50.656;7.188;2022-09-03T07:52:56;17.20;99.90
9939;DHT22;5008;50.656;7.188;2022-09-03T07:55:24;17.20;99.90
9939;DHT22;5008;50.656;7.188;2022-09-03T07:57:54;17.10;99.90
9939;DHT22;5008;50.656;7.188;2022-09-03T08:00:23;17.10;99.90
9939;DHT22;5008;50.656;7.188;2022-09-03T08:02:52;17.20;99.90
9939;DHT22;5008;50.656;7.188;2022-09-03T08:05:19;17.30;99.90
9939;DHT22;5008;50.656;7.188;2022-09-03T08:07:46;17.20;99.90
9939;DHT22;5008;50.656;7.188;2022-09-03T08:10:13;17.10;99.90
9939;DHT22;5008;50.656;7.188;2022-09-03T08:12:41;17.10;99.90
9939;DHT22;5008;50.656;7.188;2022-09-03T08:15:08;17.10;99.90
9939;DHT22;5008;50.656;7.188;2022-09-03T08:17:35;17.20;99.90
9939;DHT22;5008;50.656;7.188;2022-09-03T08:20:04;17.20;99.90
9939;DHT22;5008;50.656;7.188;2022-09-03T08:22:30;17.30;99.90
9939;DHT22;5008;50.656;7.188;2022-09-03T08:24:58;17.30;99.90
9939;DHT22;5008;50.656;7.188;2022-09-03T08:27:25;17.30;99.90
9939;DHT22;5008;50.656;7.188;2022-09-03T08:29:52;17.30;99.90
9939;DHT22;5008;50.656;7.188;2022-09-03T08:32:18;17.40;99.90
9939;DHT22;5008;50.656;7.188;2022-09-03T08:34:47;17.40;99.90
9939;DHT22;5008;50.656;7.188;2022-09-03T08:37:16;17.40;99.90
9939;DHT22;5008;50.656;7.188;2022-09-03T08:39:43;17.50;99.90
9939;DHT22;5008;50.656;7.188;2022-09-03T08:42:32;17.50;99.90
9939;DHT22;5008;50.656;7.188;2022-09-03T08:45:02;17.60;99.90
9939;DHT22;5008;50.656;7.188;2022-09-03T08:47:33;17.70;99.90
9939;DHT22;5008;50.656;7.188;2022-09-03T08:50:06;17.80;99.90
9939;DHT22;5008;50.656;7.188;2022-09-03T08:52:39;17.80;99.90
9939;DHT22;5008;50.656;7.188;2022-09-03T08:55:17;17.90;99.90
9939;DHT22;5008;50.656;7.188;2022-09-03T08:57:47;17.90;99.90
9939;DHT22;5008;50.656;7.188;2022-09-03T09:00:14;17.90;99.90
9939;DHT22;5008;50.656;7.188;2022-09-03T09:02:52;18.00;99.90
9939;DHT22;5008;50.656;7.188;2022-09-03T09:05:24;18.10;99.90
9939;DHT22;5008;50.656;7.188;2022-09-03T09:08:02;18.20;99.90
9939;DHT22;5008;50.656;7.188;2022-09-03T09:10:39;18.30;99.90
9939;DHT22;5008;50.656;7.188;2022-09-03T09:13:13;18.30;99.90
9939;DHT22;5008;50.656;7.188;2022-09-03T09:15:47;18.40;99.90
9939;DHT22;5008;50.656;7.188;2022-09-03T09:18:22;18.50;99.90
9939;DHT22;5008;50.656;7.188;2022-09-03T09:20:56;18.60;99.90
9939;DHT22;5008;50.656;7.188;2022-09-03T09:23:30;18.60;99.90
9939;DHT22;5008;50.656;7.188;2022-09-03T09:26:04;18.70;99.90
9939;DHT22;5008;50.656;7.188;2022-09-03T09:28:34;18.60;99.90
9939;DHT22;5008;50.656;7.188;2022-09-03T09:31:03;18.70;99.90
9939;DHT22;5008;50.656;7.188;2022-09-03T09:33:33;18.60;99.90
9939;DHT22;5008;50.656;7.188;2022-09-03T09:36:01;18.60;99.90
9939;DHT22;5008;50.656;7.188;2022-09-03T09:38:30;18.60;99.90
9939;DHT22;5008;50.656;7.188;2022-09-03T09:41:07;18.70;99.90
9939;DHT22;5008;50.656;7.188;2022-09-03T09:43:34;18.70;99.90
9939;DHT22;5008;50.656;7.188;2022-09-03T09:46:07;18.70;99.90
9939;DHT22;5008;50.656;7.188;2022-09-03T09:48:38;18.80;99.90
9939;DHT22;5008;50.656;7.188;2022-09-03T09:51:12;18.80;99.90
9939;DHT22;5008;50.656;7.188;2022-09-03T09:53:41;18.80;99.90
9939;DHT22;5008;50.656;7.188;2022-09-03T09:56:19;18.90;99.90
9939;DHT22;5008;50.656;7.188;2022-09-03T09:58:46;19.00;99.90
9939;DHT22;5008;50.656;7.188;2022-09-03T10:01:17;19.20;99.90
9939;DHT22;5008;50.656;7.188;2022-09-03T10:03:49;19.50;99.90
9939;DHT22;5008;50.656;7.188;2022-09-03T10:06:16;19.60;99.90
9939;DHT22;5008;50.656;7.188;2022-09-03T10:09:15;19.80;99.90
9939;DHT22;5008;50.656;7.188;2022-09-03T10:11:44;20.20;99.90
9939;DHT22;5008;50.656;7.188;2022-09-03T10:14:17;20.40;99.90
9939;DHT22;5008;50.656;7.188;2022-09-03T10:16:49;20.70;99.90
9939;DHT22;5008;50.656;7.188;2022-09-03T10:19:24;20.70;99.90
9939;DHT22;5008;50.656;7.188;2022-09-03T10:22:03;20.80;99.90
9939;DHT22;5008;50.656;7.188;2022-09-03T10:24:40;20.70;99.90
9939;DHT22;5008;50.656;7.188;2022-09-03T10:27:15;20.60;99.90
9939;DHT22;5008;50.656;7.188;2022-09-03T10:29:43;20.60;99.90
9939;DHT22;5008;50.656;7.188;2022-09-03T10:32:21;20.60;99.90
9939;DHT22;5008;50.656;7.188;2022-09-03T10:34:59;20.50;99.90
9939;DHT22;5008;50.656;7.188;2022-09-03T10:37:35;20.50;99.90
9939;DHT22;5008;50.656;7.188;2022-09-03T10:40:14;20.40;99.90
9939;DHT22;5008;50.656;7.188;2022-09-03T10:42:53;20.40;99.90
9939;DHT22;5008;50.656;7.188;2022-09-03T10:45:31;20.40;99.90
9939;DHT22;5008;50.656;7.188;2022-09-03T10:48:30;20.40;99.90
9939;DHT22;5008;50.656;7.188;2022-09-03T10:51:03;20.40;99.90
9939;DHT22;5008;50.656;7.188;2022-09-03T10:53:43;20.30;99.90
9939;DHT22;5008;50.656;7.188;2022-09-03T10:56:20;20.30;99.90
9939;DHT22;5008;50.656;7.188;2022-09-03T10:59:04;20.40;99.90
9939;DHT22;5008;50.656;7.188;2022-09-03T11:01:41;20.40;99.90
9939;DHT22;5008;50.656;7.188;2022-09-03T11:04:21;20.50;99.90
9939;DHT22;5008;50.656;7.188;2022-09-03T11:06:53;20.50;99.90
9939;DHT22;5008;50.656;7.188;2022-09-03T11:09:22;20.60;99.90
9939;DHT22;5008;50.656;7.188;2022-09-03T11:11:55;20.60;99.90
9939;DHT22;5008;50.656;7.188;2022-09-03T11:14:31;20.60;99.90
9939;DHT22;5008;50.656;7.188;2022-09-03T11:17:05;20.80;99.90
9939;DHT22;5008;50.656;7.188;2022-09-03T11:19:36;20.90;99.90
9939;DHT22;5008;50.656;7.188;2022-09-03T11:22:07;20.90;99.90
9939;DHT22;5008;50.656;7.188;2022-09-03T11:24:37;21.00;99.90
9939;DHT22;5008;50.656;7.188;2022-09-03T11:27:22;21.00;99.90
9939;DHT22;5008;50.656;7.188;2022-09-03T11:29:56;21.10;99.90
9939;DHT22;5008;50.656;7.188;2022-09-03T11:32:29;21.10;99.90
9939;DHT22;5008;50.656;7.188;2022-09-03T11:34:59;21.20;99.90
9939;DHT22;5008;50.656;7.188;2022-09-03T11:37:28;21.30;99.90
9939;DHT22;5008;50.656;7.188;2022-09-03T11:39:58;21.40;99.90
9939;DHT22;5008;50.656;7.188;2022-09-03T11:42:34;21.60;99.90
9939;DHT22;5008;50.656;7.188;2022-09-03T11:45:22;21.70;99.90
9939;DHT22;5008;50.656;7.188;2022-09-03T11:47:50;21.70;99.90
9939;DHT22;5008;50.656;7.188;2022-09-03T11:50:21;21.70;99.90
9939;DHT22;5008;50.656;7.188;2022-09-03T11:52:50;21.70;99.90
9939;DHT22;5008;50.656;7.188;2022-09-03T11:55:28;21.70;99.90
9939;DHT22;5008;50.656;7.188;2022-09-03T11:58:10;21.70;99.90
9939;DHT22;5008;50.656;7.188;2022-09-03T12:00:39;21.70;99.90
9939;DHT22;5008;50.656;7.188;2022-09-03T12:03:13;21.70;99.90
9939;DHT22;5008;50.656;7.188;2022-09-03T12:05:48;21.80;99.90
9939;DHT22;5008;50.656;7.188;2022-09-03T12:08:41;21.90;99.90
9939;DHT22;5008;50.656;7.188;2022-09-03T12:11:28;22.00;99.90
9939;DHT22;5008;50.656;7.188;2022-09-03T12:14:05;22.10;99.90
9939;DHT22;5008;50.656;7.188;2022-09-03T12:16:56;22.30;99.90
9939;DHT22;5008;50.656;7.188;2022-09-03T12:19:34;22.60;99.90
9939;DHT22;5008;50.656;7.188;2022-09-03T12:22:01;22.90;99.90
9939;DHT22;5008;50.656;7.188;2022-09-03T12:24:30;22.90;99.90
9939;DHT22;5008;50.656;7.188;2022-09-03T12:27:02;22.80;99.90
9939;DHT22;5008;50.656;7.188;2022-09-03T12:29:30;22.80;99.90
9939;DHT22;5008;50.656;7.188;2022-09-03T12:32:06;22.60;99.90
9939;DHT22;5008;50.656;7.188;2022-09-03T12:34:33;22.60;99.90
9939;DHT22;5008;50.656;7.188;2022-09-03T12:37:01;22.60;99.90
9939;DHT22;5008;50.656;7.188;2022-09-03T12:39:29;22.50;99.90
9939;DHT22;5008;50.656;7.188;2022-09-03T12:41:59;22.50;99.90
9939;DHT22;5008;50.656;7.188;2022-09-03T12:44:31;22.50;99.90
9939;DHT22;5008;50.656;7.188;2022-09-03T12:47:03;22.50;99.90
9939;DHT22;5008;50.656;7.188;2022-09-03T12:49:35;22.70;99.90
9939;DHT22;5008;50.656;7.188;2022-09-03T12:52:07;22.70;99.90
9939;DHT22;5008;50.656;7.188;2022-09-03T12:54:41;22.80;99.90
9939;DHT22;5008;50.656;7.188;2022-09-03T12:57:10;23.10;99.90
9939;DHT22;5008;50.656;7.188;2022-09-03T12:59:39;23.20;99.90
9939;DHT22;5008;50.656;7.188;2022-09-03T13:02:15;23.20;99.90
9939;DHT22;5008;50.656;7.188;2022-09-03T13:04:45;23.10;99.90
9939;DHT22;5008;50.656;7.188;2022-09-03T13:07:13;23.00;99.90
9939;DHT22;5008;50.656;7.188;2022-09-03T13:09:46;22.90;99.90
9939;DHT22;5008;50.656;7.188;2022-09-03T13:12:21;22.80;99.90
9939;DHT22;5008;50.656;7.188;2022-09-03T13:14:50;22.90;99.90
9939;DHT22;5008;50.656;7.188;2022-09-03T13:17:35;22.80;99.90
9939;DHT22;5008;50.656;7.188;2022-09-03T13:20:22;22.80;99.90
9939;DHT22;5008;50.656;7.188;2022-09-03T13:23:04;22.90;99.90
9939;DHT22;5008;50.656;7.188;2022-09-03T13:25:40;22.90;99.90
9939;DHT22;5008;50.656;7.188;2022-09-03T13:28:18;23.10;99.90
9939;DHT22;5008;50.656;7.188;2022-09-03T13:30:55;23.30;99.90
9939;DHT22;5008;50.656;7.188;2022-09-03T13:33:26;23.20;99.90
9939;DHT22;5008;50.656;7.188;2022-09-03T13:36:00;23.20;99.90
9939;DHT22;5008;50.656;7.188;2022-09-03T13:38:32;23.20;99.90
9939;DHT22;5008;50.656;7.188;2022-09-03T13:41:07;23.20;99.90
9939;DHT22;5008;50.656;7.188;2022-09-03T13:43:47;23.30;99.90
9939;DHT22;5008;50.656;7.188;2022-09-03T13:46:23;23.30;99.90
9939;DHT22;5008;50.656;7.188;2022-09-03T13:48:57;23.20;99.90
9939;DHT22;5008;50.656;7.188;2022-09-03T13:51:47;23.10;99.90
9939;DHT22;5008;50.656;7.188;2022-09-03T13:54:19;23.10;99.90
9939;DHT22;5008;50.656;7.188;2022-09-03T13:56:54;23.10;99.90
9939;DHT22;5008;50.656;7.188;2022-09-03T13:59:28;23.10;99.90
9939;DHT22;5008;50.656;7.188;2022-09-03T14:02:15;23.10;99.90
9939;DHT22;5008;50.656;7.188;2022-09-03T14:04:54;23.20;99.90
9939;DHT22;5008;50.656;7.188;2022-09-03T14:07:27;23.40;99.90
9939;DHT22;5008;50.656;7.188;2022-09-03T14:10:03;23.70;99.90
9939;DHT22;5008;50.656;7.188;2022-09-03T14:12:41;23.80;99.90
9939;DHT22;5008;50.656;7.188;2022-09-03T14:15:17;24.00;99.90
9939;DHT22;5008;50.656;7.188;2022-09-03T14:17:54;23.80;99.90
9939;DHT22;5008;50.656;7.188;2022-09-03T14:20:24;23.70;99.90
9939;DHT22;5008;50.656;7.188;2022-09-03T14:22:57;23.60;99.90
9939;DHT22;5008;50.656;7.188;2022-09-03T14:25:26;23.50;99.90
9939;DHT22;5008;50.656;7.188;2022-09-03T14:27:54;23.50;99.90
9939;DHT22;5008;50.656;7.188;2022-09-03T14:30:32;23.70;99.90
9939;DHT22;5008;50.656;7.188;2022-09-03T14:33:09;23.70;99.90
9939;DHT22;5008;50.656;7.188;2022-09-03T14:35:52;23.70;99.90
9939;DHT22;5008;50.656;7.188;2022-09-03T14:38:31;23.70;99.90
9939;DHT22;5008;50.656;7.188;2022-09-03T14:41:05;23.80;99.90
9939;DHT22;5008;50.656;7.188;2022-09-03T14:44:01;23.80;99.90
9939;DHT22;5008;50.656;7.188;2022-09-03T14:46:37;23.80;99.90
9939;DHT22;5008;50.656;7.188;2022-09-03T14:49:44;23.70;99.90
9939;DHT22;5008;50.656;7.188;2022-09-03T14:52:27;23.70;99.90
9939;DHT22;5008;50.656;7.188;2022-09-03T14:55:12;23.80;99.90
9939;DHT22;5008;50.656;7.188;2022-09-03T14:58:06;23.60;99.90
9939;DHT22;5008;50.656;7.188;2022-09-03T15:00:44;23.50;99.90
9939;DHT22;5008;50.656;7.188;2022-09-03T15:06:31;23.50;99.90
9939;DHT22;5008;50.656;7.188;2022-09-03T15:09:17;23.50;99.90
9939;DHT22;5008;50.656;7.188;2022-09-03T15:11:50;23.40;99.90
9939;DHT22;5008;50.656;7.188;2022-09-03T15:14:22;23.30;99.90
9939;DHT22;5008;50.656;7.188;2022-09-03T15:16:55;23.30;99.90
9939;DHT22;5008;50.656;7.188;2022-09-03T15:19:39;23.30;99.90
9939;DHT22;5008;50.656;7.188;2022-09-03T15:22:14;23.20;99.90
9939;DHT22;5008;50.656;7.188;2022-09-03T15:24:50;23.20;99.90
9939;DHT22;5008;50.656;7.188;2022-09-03T15:27:33;23.20;99.90
9939;DHT22;5008;50.656;7.188;2022-09-03T15:30:05;23.20;99.90
9939;DHT22;5008;50.656;7.188;2022-09-03T15:32:49;23.20;99.90
9939;DHT22;5008;50.656;7.188;2022-09-03T15:35:32;23.10;99.90
9939;DHT22;5008;50.656;7.188;2022-09-03T15:38:04;22.80;99.90
9939;DHT22;5008;50.656;7.188;2022-09-03T15:40:34;22.60;99.90
9939;DHT22;5008;50.656;7.188;2022-09-03T15:43:05;22.30;99.90
9939;DHT22;5008;50.656;7.188;2022-09-03T15:45:37;22.10;99.90
9939;DHT22;5008;50.656;7.188;2022-09-03T15:48:20;22.00;99.90
9939;DHT22;5008;50.656;7.188;2022-09-03T15:50:52;21.70;99.90
9939;DHT22;5008;50.656;7.188;2022-09-03T15:53:28;21.50;99.90
9939;DHT22;5008;50.656;7.188;2022-09-03T15:56:06;21.30;99.90
9939;DHT22;5008;50.656;7.188;2022-09-03T15:58:41;21.10;99.90
9939;DHT22;5008;50.656;7.188;2022-09-03T16:01:21;21.10;99.90
9939;DHT22;5008;50.656;7.188;2022-09-03T16:03:57;20.90;99.90
9939;DHT22;5008;50.656;7.188;2022-09-03T16:06:32;20.70;99.90
9939;DHT22;5008;50.656;7.188;2022-09-03T16:09:12;20.50;99.90
9939;DHT22;5008;50.656;7.188;2022-09-03T16:11:50;20.40;99.90
9939;DHT22;5008;50.656;7.188;2022-09-03T16:14:25;20.30;99.90
9939;DHT22;5008;50.656;7.188;2022-09-03T16:16:59;20.20;99.90
9939;DHT22;5008;50.656;7.188;2022-09-03T16:19:33;20.20;99.90
9939;DHT22;5008;50.656;7.188;2022-09-03T16:22:06;20.10;99.90
9939;DHT22;5008;50.656;7.188;2022-09-03T16:24:42;20.00;99.90
9939;DHT22;5008;50.656;7.188;2022-09-03T16:27:16;20.00;99.90
9939;DHT22;5008;50.656;7.188;2022-09-03T16:29:56;20.00;99.90
9939;DHT22;5008;50.656;7.188;2022-09-03T16:32:34;19.90;99.90
9939;DHT22;5008;50.656;7.188;2022-09-03T16:35:14;19.80;99.90
9939;DHT22;5008;50.656;7.188;2022-09-03T16:37:49;19.70;99.90
9939;DHT22;5008;50.656;7.188;2022-09-03T16:40:31;19.60;99.90